sensor_id;sensor_type;location;lat;lon;timestamp;P1;durP1;ratioP1;P2;durP2;ratioP2
48552;SDS011;34335;51.566;6.994;2022-12-07T00:00:46;5.03;;;2.35;;
48552;SDS011;34335;51.566;6.994;2022-12-07T00:03:11;5.10;;;3.00;;
48552;SDS011;34335;51.566;6.994;2022-12-07T00:05:36;5.30;;;2.20;;
48552;SDS011;34335;51.566;6.994;2022-12-07T00:08:02;6.82;;;2.95;;
48552;SDS011;34335;51.566;6.994;2022-12-07T00:10:27;5.32;;;2.65;;
48552;SDS011;34335;51.566;6.994;2022-12-07T00:12:52;4.38;;;1.90;;
48552;SDS011;34335;51.566;6.994;2022-12-07T00:15:17;8.83;;;4.00;;
48552;SDS011;34335;51.566;6.994;2022-12-07T00:17:43;7.10;;;3.53;;
48552;SDS011;34335;51.566;6.994;2022-12-07T00:20:08;3.93;;;2.23;;
48552;SDS011;34335;51.566;6.994;2022-12-07T00:22:34;4.00;;;1.75;;
48552;SDS011;34335;51.566;6.994;2022-12-07T00:24:59;5.67;;;2.40;;
48552;SDS011;34335;51.566;6.994;2022-12-07T00:27:24;5.57;;;3.00;;
48552;SDS011;34335;51.566;6.994;2022-12-07T00:29:49;3.47;;;1.97;;
48552;SDS011;34335;51.566;6.994;2022-12-07T00:32:15;5.85;;;2.80;;
48552;SDS011;34335;51.566;6.994;2022-12-07T00:34:40;3.55;;;2.28;;
48552;SDS011;34335;51.566;6.994;2022-12-07T00:37:05;7.70;;;3.40;;
48552;SDS011;34335;51.566;6.994;2022-12-07T00:39:30;6.33;;;3.10;;
48552;SDS011;34335;51.566;6.994;2022-12-07T00:41:56;3.75;;;2.33;;
48552;SDS011;34335;51.566;6.994;2022-12-07T00:44:21;4.93;;;2.67;;
48552;SDS011;34335;51.566;6.994;2022-12-07T00:46:46;8.30;;;3.28;;
48552;SDS011;34335;51.566;6.994;2022-12-07T00:49:11;4.63;;;2.83;;
48552;SDS011;34335;51.566;6.994;2022-12-07T00:51:37;6.28;;;3.50;;
48552;SDS011;34335;51.566;6.994;2022-12-07T00:54:02;7.00;;;3.70;;
48552;SDS011;34335;51.566;6.994;2022-12-07T00:56:28;7.10;;;3.00;;
48552;SDS011;34335;51.566;6.994;2022-12-07T00:58:55;4.13;;;2.70;;
48552;SDS011;34335;51.566;6.994;2022-12-07T01:01:23;3.63;;;2.60;;
48552;SDS011;34335;51.566;6.994;2022-12-07T01:03:49;7.65;;;2.78;;
48552;SDS011;34335;51.566;6.994;2022-12-07T01:06:15;5.88;;;2.53;;
48552;SDS011;34335;51.566;6.994;2022-12-07T01:08:42;6.97;;;3.78;;
48552;SDS011;34335;51.566;6.994;2022-12-07T01:11:09;6.20;;;3.30;;
48552;SDS011;34335;51.566;6.994;2022-12-07T01:13:36;8.23;;;2.95;;
48552;SDS011;34335;51.566;6.994;2022-12-07T01:16:03;7.25;;;4.05;;
48552;SDS011;34335;51.566;6.994;2022-12-07T01:18:30;6.65;;;3.33;;
48552;SDS011;34335;51.566;6.994;2022-12-07T01:21:04;5.80;;;3.10;;
48552;SDS011;34335;51.566;6.994;2022-12-07T01:23:35;5.13;;;3.47;;
48552;SDS011;34335;51.566;6.994;2022-12-07T01:26:03;9.40;;;4.65;;
48552;SDS011;34335;51.566;6.994;2022-12-07T01:28:30;8.05;;;3.97;;
48552;SDS011;34335;51.566;6.994;2022-12-07T01:30:57;6.90;;;2.90;;
48552;SDS011;34335;51.566;6.994;2022-12-07T01:33:24;6.22;;;3.80;;
48552;SDS011;34335;51.566;6.994;2022-12-07T01:35:49;6.05;;;3.80;;
48552;SDS011;34335;51.566;6.994;2022-12-07T01:38:14;6.05;;;3.60;;
48552;SDS011;34335;51.566;6.994;2022-12-07T01:40:39;5.32;;;2.72;;
48552;SDS011;34335;51.566;6.994;2022-12-07T01:43:13;9.52;;;3.92;;
48552;SDS011;34335;51.566;6.994;2022-12-07T01:45:42;6.03;;;3.00;;
48552;SDS011;34335;51.566;6.994;2022-12-07T01:48:08;4.90;;;3.13;;
48552;SDS011;34335;51.566;6.994;2022-12-07T01:50:35;9.68;;;4.18;;
48552;SDS011;34335;51.566;6.994;2022-12-07T01:53:03;4.30;;;2.65;;
48552;SDS011;34335;51.566;6.994;2022-12-07T01:55:31;10.70;;;4.72;;
48552;SDS011;34335;51.566;6.994;2022-12-07T01:57:57;7.97;;;4.07;;
48552;SDS011;34335;51.566;6.994;2022-12-07T02:00:23;6.85;;;2.80;;
48552;SDS011;34335;51.566;6.994;2022-12-07T02:05:46;6.53;;;3.42;;
48552;SDS011;34335;51.566;6.994;2022-12-07T02:08:13;7.20;;;3.20;;
48552;SDS011;34335;51.566;6.994;2022-12-07T02:10:39;10.45;;;4.07;;
48552;SDS011;34335;51.566;6.994;2022-12-07T02:13:15;6.00;;;1.27;;
48552;SDS011;34335;51.566;6.994;2022-12-07T02:21:12;9.35;;;3.17;;
48552;SDS011;34335;51.566;6.994;2022-12-07T02:29:33;8.00;;;4.23;;
48552;SDS011;34335;51.566;6.994;2022-12-07T02:32:08;10.30;;;3.97;;
48552;SDS011;34335;51.566;6.994;2022-12-07T02:34:50;7.22;;;3.95;;
48552;SDS011;34335;51.566;6.994;2022-12-07T02:37:25;7.10;;;3.45;;
48552;SDS011;34335;51.566;6.994;2022-12-07T02:39:59;6.55;;;3.47;;
48552;SDS011;34335;51.566;6.994;2022-12-07T02:42:42;7.75;;;3.72;;
48552;SDS011;34335;51.566;6.994;2022-12-07T02:45:13;8.40;;;4.07;;
48552;SDS011;34335;51.566;6.994;2022-12-07T02:47:40;4.43;;;2.63;;
48552;SDS011;34335;51.566;6.994;2022-12-07T02:50:07;5.20;;;3.03;;
48552;SDS011;34335;51.566;6.994;2022-12-07T02:52:33;10.48;;;3.47;;
48552;SDS011;34335;51.566;6.994;2022-12-07T02:54:58;6.28;;;2.95;;
48552;SDS011;34335;51.566;6.994;2022-12-07T02:57:34;3.20;;;2.00;;
48552;SDS011;34335;51.566;6.994;2022-12-07T03:00:09;8.50;;;3.85;;
48552;SDS011;34335;51.566;6.994;2022-12-07T03:13:30;4.95;;;3.15;;
48552;SDS011;34335;51.566;6.994;2022-12-07T03:21:46;5.75;;;2.75;;
48552;SDS011;34335;51.566;6.994;2022-12-07T03:24:18;9.98;;;3.78;;
48552;SDS011;34335;51.566;6.994;2022-12-07T03:26:51;6.40;;;3.22;;
48552;SDS011;34335;51.566;6.994;2022-12-07T03:29:20;9.65;;;2.78;;
48552;SDS011;34335;51.566;6.994;2022-12-07T03:31:52;8.23;;;3.60;;
48552;SDS011;34335;51.566;6.994;2022-12-07T03:34:26;12.80;;;3.20;;
48552;SDS011;34335;51.566;6.994;2022-12-07T03:37:03;5.03;;;2.33;;
48552;SDS011;34335;51.566;6.994;2022-12-07T03:42:04;4.57;;;2.25;;
48552;SDS011;34335;51.566;6.994;2022-12-07T03:44:32;6.18;;;3.28;;
48552;SDS011;34335;51.566;6.994;2022-12-07T03:47:03;5.05;;;2.35;;
48552;SDS011;34335;51.566;6.994;2022-12-07T03:52:19;8.52;;;3.55;;
48552;SDS011;34335;51.566;6.994;2022-12-07T03:57:33;6.07;;;3.13;;
48552;SDS011;34335;51.566;6.994;2022-12-07T04:00:01;4.43;;;2.33;;
48552;SDS011;34335;51.566;6.994;2022-12-07T04:02:29;6.40;;;3.53;;
48552;SDS011;34335;51.566;6.994;2022-12-07T04:04:55;7.43;;;3.00;;
48552;SDS011;34335;51.566;6.994;2022-12-07T04:07:21;8.63;;;3.03;;
48552;SDS011;34335;51.566;6.994;2022-12-07T04:09:46;7.18;;;2.67;;
48552;SDS011;34335;51.566;6.994;2022-12-07T04:12:12;4.63;;;2.47;;
48552;SDS011;34335;51.566;6.994;2022-12-07T04:14:37;5.63;;;2.53;;
48552;SDS011;34335;51.566;6.994;2022-12-07T04:17:02;3.25;;;2.38;;
48552;SDS011;34335;51.566;6.994;2022-12-07T04:19:28;5.80;;;3.22;;
48552;SDS011;34335;51.566;6.994;2022-12-07T04:21:56;4.43;;;2.67;;
48552;SDS011;34335;51.566;6.994;2022-12-07T04:24:23;4.63;;;2.47;;
48552;SDS011;34335;51.566;6.994;2022-12-07T04:26:49;5.35;;;3.08;;
48552;SDS011;34335;51.566;6.994;2022-12-07T04:29:14;7.65;;;2.55;;
48552;SDS011;34335;51.566;6.994;2022-12-07T04:31:40;6.18;;;1.60;;
48552;SDS011;34335;51.566;6.994;2022-12-07T04:34:06;5.05;;;2.70;;
48552;SDS011;34335;51.566;6.994;2022-12-07T04:36:32;7.30;;;3.65;;
48552;SDS011;34335;51.566;6.994;2022-12-07T04:38:58;6.75;;;3.17;;
48552;SDS011;34335;51.566;6.994;2022-12-07T04:41:23;4.18;;;2.47;;
48552;SDS011;34335;51.566;6.994;2022-12-07T04:44:00;6.00;;;2.60;;
48552;SDS011;34335;51.566;6.994;2022-12-07T04:46:28;2.75;;;1.55;;
48552;SDS011;34335;51.566;6.994;2022-12-07T04:48:55;5.13;;;2.35;;
48552;SDS011;34335;51.566;6.994;2022-12-07T04:51:22;7.30;;;2.95;;
48552;SDS011;34335;51.566;6.994;2022-12-07T04:53:49;5.25;;;1.98;;
48552;SDS011;34335;51.566;6.994;2022-12-07T04:56:15;7.43;;;2.50;;
48552;SDS011;34335;51.566;6.994;2022-12-07T04:58:41;2.97;;;1.65;;
48552;SDS011;34335;51.566;6.994;2022-12-07T05:01:07;7.78;;;3.22;;
48552;SDS011;34335;51.566;6.994;2022-12-07T05:03:33;4.85;;;2.88;;
48552;SDS011;34335;51.566;6.994;2022-12-07T05:05:58;6.13;;;2.22;;
48552;SDS011;34335;51.566;6.994;2022-12-07T05:08:23;2.33;;;1.25;;
48552;SDS011;34335;51.566;6.994;2022-12-07T05:10:49;5.20;;;2.28;;
48552;SDS011;34335;51.566;6.994;2022-12-07T05:13:15;6.78;;;3.00;;
48552;SDS011;34335;51.566;6.994;2022-12-07T05:15:40;4.43;;;2.25;;
48552;SDS011;34335;51.566;6.994;2022-12-07T05:18:07;2.97;;;2.25;;
48552;SDS011;34335;51.566;6.994;2022-12-07T05:20:33;5.35;;;2.30;;
48552;SDS011;34335;51.566;6.994;2022-12-07T05:22:59;6.15;;;3.45;;
48552;SDS011;34335;51.566;6.994;2022-12-07T05:25:24;5.60;;;2.78;;
48552;SDS011;34335;51.566;6.994;2022-12-07T05:27:50;6.47;;;2.58;;
48552;SDS011;34335;51.566;6.994;2022-12-07T05:30:15;3.95;;;1.92;;
48552;SDS011;34335;51.566;6.994;2022-12-07T05:32:41;8.23;;;2.22;;
48552;SDS011;34335;51.566;6.994;2022-12-07T05:35:06;6.53;;;2.53;;
48552;SDS011;34335;51.566;6.994;2022-12-07T05:37:32;3.38;;;1.88;;
48552;SDS011;34335;51.566;6.994;2022-12-07T05:39:57;6.47;;;3.13;;
48552;SDS011;34335;51.566;6.994;2022-12-07T05:42:23;7.63;;;3.30;;
48552;SDS011;34335;51.566;6.994;2022-12-07T05:44:49;5.28;;;2.63;;
48552;SDS011;34335;51.566;6.994;2022-12-07T05:47:15;4.88;;;2.72;;
48552;SDS011;34335;51.566;6.994;2022-12-07T05:49:41;3.05;;;1.92;;
48552;SDS011;34335;51.566;6.994;2022-12-07T05:52:06;7.13;;;2.58;;
48552;SDS011;34335;51.566;6.994;2022-12-07T05:54:32;8.50;;;1.55;;
48552;SDS011;34335;51.566;6.994;2022-12-07T05:56:58;5.15;;;2.40;;
48552;SDS011;34335;51.566;6.994;2022-12-07T05:59:23;6.07;;;2.50;;
48552;SDS011;34335;51.566;6.994;2022-12-07T06:02:00;6.25;;;2.20;;
48552;SDS011;34335;51.566;6.994;2022-12-07T06:04:29;6.18;;;2.13;;
48552;SDS011;34335;51.566;6.994;2022-12-07T06:06:56;3.42;;;2.13;;
48552;SDS011;34335;51.566;6.994;2022-12-07T06:09:22;3.42;;;2.50;;
48552;SDS011;34335;51.566;6.994;2022-12-07T06:11:49;6.03;;;2.55;;
48552;SDS011;34335;51.566;6.994;2022-12-07T06:16:59;5.37;;;2.60;;
48552;SDS011;34335;51.566;6.994;2022-12-07T06:19:24;3.35;;;1.83;;
48552;SDS011;34335;51.566;6.994;2022-12-07T06:21:50;10.85;;;2.70;;
48552;SDS011;34335;51.566;6.994;2022-12-07T06:24:16;7.25;;;2.60;;
48552;SDS011;34335;51.566;6.994;2022-12-07T06:26:42;2.47;;;1.63;;
48552;SDS011;34335;51.566;6.994;2022-12-07T06:29:08;4.32;;;1.65;;
48552;SDS011;34335;51.566;6.994;2022-12-07T06:31:34;4.35;;;1.88;;
48552;SDS011;34335;51.566;6.994;2022-12-07T06:34:01;6.80;;;2.20;;
48552;SDS011;34335;51.566;6.994;2022-12-07T06:36:28;4.78;;;2.50;;
48552;SDS011;34335;51.566;6.994;2022-12-07T06:38:54;4.93;;;2.33;;
48552;SDS011;34335;51.566;6.994;2022-12-07T06:41:20;3.78;;;2.58;;
48552;SDS011;34335;51.566;6.994;2022-12-07T06:43:46;3.05;;;1.77;;
48552;SDS011;34335;51.566;6.994;2022-12-07T06:46:11;3.05;;;1.98;;
48552;SDS011;34335;51.566;6.994;2022-12-07T06:48:37;7.20;;;3.15;;
48552;SDS011;34335;51.566;6.994;2022-12-07T06:51:02;5.13;;;2.45;;
48552;SDS011;34335;51.566;6.994;2022-12-07T06:53:27;5.20;;;2.97;;
48552;SDS011;34335;51.566;6.994;2022-12-07T06:55:52;4.32;;;2.58;;
48552;SDS011;34335;51.566;6.994;2022-12-07T06:58:18;3.92;;;1.60;;
48552;SDS011;34335;51.566;6.994;2022-12-07T07:00:43;3.03;;;1.50;;
48552;SDS011;34335;51.566;6.994;2022-12-07T07:03:09;6.00;;;2.13;;
48552;SDS011;34335;51.566;6.994;2022-12-07T07:05:34;3.35;;;1.80;;
48552;SDS011;34335;51.566;6.994;2022-12-07T07:08:01;3.80;;;2.05;;
48552;SDS011;34335;51.566;6.994;2022-12-07T07:10:27;6.28;;;3.53;;
48552;SDS011;34335;51.566;6.994;2022-12-07T07:12:52;3.97;;;2.00;;
48552;SDS011;34335;51.566;6.994;2022-12-07T07:15:18;2.17;;;1.25;;
48552;SDS011;34335;51.566;6.994;2022-12-07T07:17:43;3.53;;;1.73;;
48552;SDS011;34335;51.566;6.994;2022-12-07T07:20:08;2.97;;;1.73;;
48552;SDS011;34335;51.566;6.994;2022-12-07T07:22:34;2.58;;;1.48;;
48552;SDS011;34335;51.566;6.994;2022-12-07T07:24:59;3.78;;;1.92;;
48552;SDS011;34335;51.566;6.994;2022-12-07T07:27:25;4.43;;;1.55;;
48552;SDS011;34335;51.566;6.994;2022-12-07T07:29:50;1.25;;;0.85;;
48552;SDS011;34335;51.566;6.994;2022-12-07T07:32:15;4.68;;;1.70;;
48552;SDS011;34335;51.566;6.994;2022-12-07T07:34:41;3.70;;;2.03;;
48552;SDS011;34335;51.566;6.994;2022-12-07T07:37:06;4.72;;;2.15;;
48552;SDS011;34335;51.566;6.994;2022-12-07T07:39:31;3.17;;;1.27;;
48552;SDS011;34335;51.566;6.994;2022-12-07T07:41:57;3.03;;;1.63;;
48552;SDS011;34335;51.566;6.994;2022-12-07T07:44:22;3.57;;;1.80;;
48552;SDS011;34335;51.566;6.994;2022-12-07T07:46:47;3.87;;;1.87;;
48552;SDS011;34335;51.566;6.994;2022-12-07T07:49:12;2.10;;;1.00;;
48552;SDS011;34335;51.566;6.994;2022-12-07T07:51:38;5.95;;;2.22;;
48552;SDS011;34335;51.566;6.994;2022-12-07T07:54:03;4.50;;;2.70;;
48552;SDS011;34335;51.566;6.994;2022-12-07T07:56:29;4.38;;;2.28;;
48552;SDS011;34335;51.566;6.994;2022-12-07T07:58:54;4.75;;;2.00;;
48552;SDS011;34335;51.566;6.994;2022-12-07T08:01:20;3.78;;;2.20;;
48552;SDS011;34335;51.566;6.994;2022-12-07T08:03:48;6.88;;;2.47;;
48552;SDS011;34335;51.566;6.994;2022-12-07T08:06:14;3.10;;;1.58;;
48552;SDS011;34335;51.566;6.994;2022-12-07T08:08:39;2.78;;;1.60;;
48552;SDS011;34335;51.566;6.994;2022-12-07T08:11:05;4.40;;;1.25;;
48552;SDS011;34335;51.566;6.994;2022-12-07T08:13:32;3.28;;;1.40;;
48552;SDS011;34335;51.566;6.994;2022-12-07T08:15:57;2.55;;;1.45;;
48552;SDS011;34335;51.566;6.994;2022-12-07T08:18:23;6.65;;;1.63;;
48552;SDS011;34335;51.566;6.994;2022-12-07T08:20:48;3.33;;;1.73;;
48552;SDS011;34335;51.566;6.994;2022-12-07T08:23:13;3.63;;;1.88;;
48552;SDS011;34335;51.566;6.994;2022-12-07T08:25:39;2.75;;;1.63;;
48552;SDS011;34335;51.566;6.994;2022-12-07T08:28:05;3.05;;;1.65;;
48552;SDS011;34335;51.566;6.994;2022-12-07T08:30:31;3.25;;;1.98;;
48552;SDS011;34335;51.566;6.994;2022-12-07T08:32:56;3.30;;;1.60;;
48552;SDS011;34335;51.566;6.994;2022-12-07T08:35:22;2.28;;;1.27;;
48552;SDS011;34335;51.566;6.994;2022-12-07T08:37:48;3.35;;;1.70;;
48552;SDS011;34335;51.566;6.994;2022-12-07T08:40:13;5.70;;;1.95;;
48552;SDS011;34335;51.566;6.994;2022-12-07T08:42:43;3.97;;;2.28;;
48552;SDS011;34335;51.566;6.994;2022-12-07T08:45:13;4.60;;;2.35;;
48552;SDS011;34335;51.566;6.994;2022-12-07T08:47:44;5.57;;;2.28;;
48552;SDS011;34335;51.566;6.994;2022-12-07T08:50:14;2.88;;;1.52;;
48552;SDS011;34335;51.566;6.994;2022-12-07T08:52:40;4.20;;;2.10;;
48552;SDS011;34335;51.566;6.994;2022-12-07T08:55:07;3.22;;;1.33;;
48552;SDS011;34335;51.566;6.994;2022-12-07T08:57:36;2.15;;;0.90;;
48552;SDS011;34335;51.566;6.994;2022-12-07T09:00:03;3.67;;;1.50;;
48552;SDS011;34335;51.566;6.994;2022-12-07T09:02:30;2.72;;;1.55;;
48552;SDS011;34335;51.566;6.994;2022-12-07T09:04:56;8.13;;;2.28;;
48552;SDS011;34335;51.566;6.994;2022-12-07T09:07:21;2.85;;;1.88;;
48552;SDS011;34335;51.566;6.994;2022-12-07T09:09:47;3.33;;;1.27;;
48552;SDS011;34335;51.566;6.994;2022-12-07T09:12:12;4.00;;;1.67;;
48552;SDS011;34335;51.566;6.994;2022-12-07T09:14:37;3.13;;;1.43;;
48552;SDS011;34335;51.566;6.994;2022-12-07T09:17:10;4.38;;;1.90;;
48552;SDS011;34335;51.566;6.994;2022-12-07T09:19:37;4.00;;;1.73;;
48552;SDS011;34335;51.566;6.994;2022-12-07T09:22:03;3.67;;;1.52;;
48552;SDS011;34335;51.566;6.994;2022-12-07T09:24:29;0.68;;;0.50;;
48552;SDS011;34335;51.566;6.994;2022-12-07T09:26:55;1.60;;;0.80;;
48552;SDS011;34335;51.566;6.994;2022-12-07T09:29:20;2.40;;;1.10;;
48552;SDS011;34335;51.566;6.994;2022-12-07T09:31:46;2.50;;;1.20;;
48552;SDS011;34335;51.566;6.994;2022-12-07T09:34:11;3.37;;;1.60;;
48552;SDS011;34335;51.566;6.994;2022-12-07T09:36:36;0.87;;;0.77;;
48552;SDS011;34335;51.566;6.994;2022-12-07T09:39:02;3.22;;;1.92;;
48552;SDS011;34335;51.566;6.994;2022-12-07T09:41:29;2.28;;;1.15;;
48552;SDS011;34335;51.566;6.994;2022-12-07T09:44:04;2.63;;;1.20;;
48552;SDS011;34335;51.566;6.994;2022-12-07T09:46:34;4.32;;;2.20;;
48552;SDS011;34335;51.566;6.994;2022-12-07T09:49:03;3.25;;;1.67;;
48552;SDS011;34335;51.566;6.994;2022-12-07T09:51:29;3.78;;;1.30;;
48552;SDS011;34335;51.566;6.994;2022-12-07T09:53:56;3.08;;;1.40;;
48552;SDS011;34335;51.566;6.994;2022-12-07T09:56:23;1.90;;;1.08;;
48552;SDS011;34335;51.566;6.994;2022-12-07T09:58:49;4.10;;;1.52;;
48552;SDS011;34335;51.566;6.994;2022-12-07T10:01:23;5.50;;;1.33;;
48552;SDS011;34335;51.566;6.994;2022-12-07T10:03:50;3.30;;;1.60;;
48552;SDS011;34335;51.566;6.994;2022-12-07T10:06:20;2.25;;;0.80;;
48552;SDS011;34335;51.566;6.994;2022-12-07T10:08:46;2.50;;;0.98;;
48552;SDS011;34335;51.566;6.994;2022-12-07T10:11:11;3.13;;;1.10;;
48552;SDS011;34335;51.566;6.994;2022-12-07T10:13:41;3.17;;;1.10;;
48552;SDS011;34335;51.566;6.994;2022-12-07T10:18:54;2.10;;;1.00;;
48552;SDS011;34335;51.566;6.994;2022-12-07T10:21:20;3.75;;;1.65;;
48552;SDS011;34335;51.566;6.994;2022-12-07T10:24:13;4.28;;;1.60;;
48552;SDS011;34335;51.566;6.994;2022-12-07T10:29:17;2.92;;;1.42;;
48552;SDS011;34335;51.566;6.994;2022-12-07T10:31:48;4.80;;;1.40;;
48552;SDS011;34335;51.566;6.994;2022-12-07T10:34:30;2.65;;;1.85;;
48552;SDS011;34335;51.566;6.994;2022-12-07T10:39:40;3.87;;;1.33;;
48552;SDS011;34335;51.566;6.994;2022-12-07T10:42:22;2.08;;;1.23;;
48552;SDS011;34335;51.566;6.994;2022-12-07T10:44:50;2.42;;;1.23;;
48552;SDS011;34335;51.566;6.994;2022-12-07T10:53:17;1.98;;;0.77;;
48552;SDS011;34335;51.566;6.994;2022-12-07T11:01:34;1.98;;;1.20;;
48552;SDS011;34335;51.566;6.994;2022-12-07T11:07:07;1.80;;;1.05;;
48552;SDS011;34335;51.566;6.994;2022-12-07T11:12:14;2.13;;;1.10;;
48552;SDS011;34335;51.566;6.994;2022-12-07T11:15:11;2.53;;;1.30;;
48552;SDS011;34335;51.566;6.994;2022-12-07T11:22:49;2.90;;;0.98;;
48552;SDS011;34335;51.566;6.994;2022-12-07T11:25:23;6.65;;;1.15;;
48552;SDS011;34335;51.566;6.994;2022-12-07T11:34:03;0.85;;;0.55;;
48552;SDS011;34335;51.566;6.994;2022-12-07T11:36:41;1.40;;;0.90;;
48552;SDS011;34335;51.566;6.994;2022-12-07T11:39:23;4.13;;;0.85;;
48552;SDS011;34335;51.566;6.994;2022-12-07T11:41:55;2.15;;;1.23;;
48552;SDS011;34335;51.566;6.994;2022-12-07T11:47:17;1.90;;;1.02;;
48552;SDS011;34335;51.566;6.994;2022-12-07T11:52:43;1.60;;;1.20;;
48552;SDS011;34335;51.566;6.994;2022-12-07T11:55:19;2.50;;;1.02;;
48552;SDS011;34335;51.566;6.994;2022-12-07T11:57:52;1.13;;;0.80;;
48552;SDS011;34335;51.566;6.994;2022-12-07T12:00:27;2.25;;;0.98;;
48552;SDS011;34335;51.566;6.994;2022-12-07T12:05:30;2.13;;;0.75;;
48552;SDS011;34335;51.566;6.994;2022-12-07T12:13:22;1.17;;;0.75;;
48552;SDS011;34335;51.566;6.994;2022-12-07T12:21:47;3.20;;;1.33;;
48552;SDS011;34335;51.566;6.994;2022-12-07T12:24:21;0.95;;;0.77;;
48552;SDS011;34335;51.566;6.994;2022-12-07T12:26:51;1.25;;;0.95;;
48552;SDS011;34335;51.566;6.994;2022-12-07T12:29:31;2.90;;;1.20;;
48552;SDS011;34335;51.566;6.994;2022-12-07T12:32:04;1.33;;;0.65;;
48552;SDS011;34335;51.566;6.994;2022-12-07T12:34:32;1.15;;;0.65;;
48552;SDS011;34335;51.566;6.994;2022-12-07T12:40:23;1.48;;;0.60;;
48552;SDS011;34335;51.566;6.994;2022-12-07T12:42:56;2.78;;;0.95;;
48552;SDS011;34335;51.566;6.994;2022-12-07T12:45:27;2.80;;;1.02;;
48552;SDS011;34335;51.566;6.994;2022-12-07T12:48:01;3.92;;;0.95;;
48552;SDS011;34335;51.566;6.994;2022-12-07T12:50:33;1.50;;;0.65;;
48552;SDS011;34335;51.566;6.994;2022-12-07T12:55:51;1.30;;;0.70;;
48552;SDS011;34335;51.566;6.994;2022-12-07T12:58:38;2.42;;;1.23;;
48552;SDS011;34335;51.566;6.994;2022-12-07T13:04:01;2.45;;;1.25;;
48552;SDS011;34335;51.566;6.994;2022-12-07T13:06:37;2.15;;;1.05;;
48552;SDS011;34335;51.566;6.994;2022-12-07T13:09:03;1.55;;;0.88;;
48552;SDS011;34335;51.566;6.994;2022-12-07T13:11:33;1.75;;;0.68;;
48552;SDS011;34335;51.566;6.994;2022-12-07T13:17:08;2.95;;;0.98;;
48552;SDS011;34335;51.566;6.994;2022-12-07T13:19:54;1.63;;;1.35;;
48552;SDS011;34335;51.566;6.994;2022-12-07T13:22:34;1.80;;;0.75;;
48552;SDS011;34335;51.566;6.994;2022-12-07T13:27:56;9.57;;;1.33;;
48552;SDS011;34335;51.566;6.994;2022-12-07T13:30:26;1.88;;;0.98;;
48552;SDS011;34335;51.566;6.994;2022-12-07T13:32:54;1.90;;;0.65;;
48552;SDS011;34335;51.566;6.994;2022-12-07T13:35:30;3.53;;;0.93;;
48552;SDS011;34335;51.566;6.994;2022-12-07T13:38:02;2.78;;;0.93;;
48552;SDS011;34335;51.566;6.994;2022-12-07T13:40:31;2.00;;;0.60;;
48552;SDS011;34335;51.566;6.994;2022-12-07T13:42:57;2.60;;;1.15;;
48552;SDS011;34335;51.566;6.994;2022-12-07T13:45:25;3.72;;;1.98;;
48552;SDS011;34335;51.566;6.994;2022-12-07T13:48:33;3.70;;;1.60;;
48552;SDS011;34335;51.566;6.994;2022-12-07T13:51:14;0.93;;;0.45;;
48552;SDS011;34335;51.566;6.994;2022-12-07T13:53:46;2.28;;;1.17;;
48552;SDS011;34335;51.566;6.994;2022-12-07T13:56:12;3.60;;;1.13;;
48552;SDS011;34335;51.566;6.994;2022-12-07T13:58:39;2.97;;;1.10;;
48552;SDS011;34335;51.566;6.994;2022-12-07T14:01:04;2.92;;;1.00;;
48552;SDS011;34335;51.566;6.994;2022-12-07T14:03:33;1.65;;;0.47;;
48552;SDS011;34335;51.566;6.994;2022-12-07T14:06:17;5.25;;;0.90;;
48552;SDS011;34335;51.566;6.994;2022-12-07T14:09:08;1.45;;;0.77;;
48552;SDS011;34335;51.566;6.994;2022-12-07T14:11:41;2.35;;;1.10;;
48552;SDS011;34335;51.566;6.994;2022-12-07T14:14:10;1.10;;;0.60;;
48552;SDS011;34335;51.566;6.994;2022-12-07T14:16:41;3.47;;;1.20;;
48552;SDS011;34335;51.566;6.994;2022-12-07T14:19:37;1.95;;;0.90;;
48552;SDS011;34335;51.566;6.994;2022-12-07T14:24:58;1.83;;;0.85;;
48552;SDS011;34335;51.566;6.994;2022-12-07T14:27:24;1.42;;;0.82;;
48552;SDS011;34335;51.566;6.994;2022-12-07T14:29:55;1.60;;;0.95;;
48552;SDS011;34335;51.566;6.994;2022-12-07T14:32:23;2.38;;;0.90;;
48552;SDS011;34335;51.566;6.994;2022-12-07T14:34:53;1.92;;;0.98;;
48552;SDS011;34335;51.566;6.994;2022-12-07T14:37:36;0.90;;;0.65;;
48552;SDS011;34335;51.566;6.994;2022-12-07T14:40:03;5.57;;;0.88;;
48552;SDS011;34335;51.566;6.994;2022-12-07T14:42:29;1.48;;;0.60;;
48552;SDS011;34335;51.566;6.994;2022-12-07T14:44:56;1.27;;;0.75;;
48552;SDS011;34335;51.566;6.994;2022-12-07T14:47:22;1.77;;;0.90;;
48552;SDS011;34335;51.566;6.994;2022-12-07T14:49:49;4.75;;;1.95;;
48552;SDS011;34335;51.566;6.994;2022-12-07T14:52:15;1.90;;;0.75;;
48552;SDS011;34335;51.566;6.994;2022-12-07T14:54:44;1.38;;;0.90;;
48552;SDS011;34335;51.566;6.994;2022-12-07T14:57:09;2.50;;;1.08;;
48552;SDS011;34335;51.566;6.994;2022-12-07T14:59:36;1.30;;;0.82;;
48552;SDS011;34335;51.566;6.994;2022-12-07T15:02:01;3.90;;;1.00;;
48552;SDS011;34335;51.566;6.994;2022-12-07T15:04:27;2.03;;;0.98;;
48552;SDS011;34335;51.566;6.994;2022-12-07T15:07:00;1.25;;;0.63;;
48552;SDS011;34335;51.566;6.994;2022-12-07T15:09:27;0.80;;;0.50;;
48552;SDS011;34335;51.566;6.994;2022-12-07T15:11:52;4.78;;;0.80;;
48552;SDS011;34335;51.566;6.994;2022-12-07T15:14:17;1.55;;;1.05;;
48552;SDS011;34335;51.566;6.994;2022-12-07T15:16:43;4.33;;;1.00;;
48552;SDS011;34335;51.566;6.994;2022-12-07T15:19:18;2.03;;;1.13;;
48552;SDS011;34335;51.566;6.994;2022-12-07T15:21:47;0.98;;;0.60;;
48552;SDS011;34335;51.566;6.994;2022-12-07T15:24:13;8.63;;;0.98;;
48552;SDS011;34335;51.566;6.994;2022-12-07T15:26:38;1.40;;;0.70;;
48552;SDS011;34335;51.566;6.994;2022-12-07T15:29:05;1.50;;;1.05;;
48552;SDS011;34335;51.566;6.994;2022-12-07T15:31:31;2.25;;;1.10;;
48552;SDS011;34335;51.566;6.994;2022-12-07T15:33:57;3.10;;;1.05;;
48552;SDS011;34335;51.566;6.994;2022-12-07T15:36:23;2.13;;;0.98;;
48552;SDS011;34335;51.566;6.994;2022-12-07T15:38:50;2.47;;;1.17;;
48552;SDS011;34335;51.566;6.994;2022-12-07T15:41:16;6.90;;;1.00;;
48552;SDS011;34335;51.566;6.994;2022-12-07T15:43:42;2.00;;;0.90;;
48552;SDS011;34335;51.566;6.994;2022-12-07T15:48:59;8.35;;;2.45;;
48552;SDS011;34335;51.566;6.994;2022-12-07T15:51:25;6.25;;;2.33;;
48552;SDS011;34335;51.566;6.994;2022-12-07T15:53:51;1.88;;;1.20;;
48552;SDS011;34335;51.566;6.994;2022-12-07T15:56:16;2.85;;;1.42;;
48552;SDS011;34335;51.566;6.994;2022-12-07T15:58:41;3.20;;;0.98;;
48552;SDS011;34335;51.566;6.994;2022-12-07T16:01:14;3.53;;;1.08;;
48552;SDS011;34335;51.566;6.994;2022-12-07T16:03:41;2.55;;;1.25;;
48552;SDS011;34335;51.566;6.994;2022-12-07T16:06:07;2.67;;;1.15;;
48552;SDS011;34335;51.566;6.994;2022-12-07T16:08:32;2.65;;;1.25;;
48552;SDS011;34335;51.566;6.994;2022-12-07T16:10:58;9.55;;;1.90;;
48552;SDS011;34335;51.566;6.994;2022-12-07T16:13:24;7.57;;;1.90;;
48552;SDS011;34335;51.566;6.994;2022-12-07T16:15:49;2.20;;;1.20;;
48552;SDS011;34335;51.566;6.994;2022-12-07T16:18:15;1.05;;;0.75;;
48552;SDS011;34335;51.566;6.994;2022-12-07T16:20:40;3.75;;;1.65;;
48552;SDS011;34335;51.566;6.994;2022-12-07T16:23:05;2.30;;;0.60;;
48552;SDS011;34335;51.566;6.994;2022-12-07T16:25:32;1.95;;;0.85;;
48552;SDS011;34335;51.566;6.994;2022-12-07T16:27:57;2.33;;;1.38;;
48552;SDS011;34335;51.566;6.994;2022-12-07T16:30:22;1.83;;;1.08;;
48552;SDS011;34335;51.566;6.994;2022-12-07T16:32:48;1.58;;;1.10;;
48552;SDS011;34335;51.566;6.994;2022-12-07T16:35:13;1.37;;;0.93;;
48552;SDS011;34335;51.566;6.994;2022-12-07T16:37:38;2.83;;;1.67;;
48552;SDS011;34335;51.566;6.994;2022-12-07T16:40:06;3.40;;;1.95;;
48552;SDS011;34335;51.566;6.994;2022-12-07T16:42:32;3.13;;;1.70;;
48552;SDS011;34335;51.566;6.994;2022-12-07T16:44:59;2.42;;;1.55;;
48552;SDS011;34335;51.566;6.994;2022-12-07T16:47:24;2.83;;;1.02;;
48552;SDS011;34335;51.566;6.994;2022-12-07T16:49:50;1.70;;;0.90;;
48552;SDS011;34335;51.566;6.994;2022-12-07T16:52:16;2.80;;;1.08;;